createdAt,value
2022-11-13T00:03:18.030Z,13.1
2022-11-13T00:08:18.193Z,13.1
2022-11-13T00:13:18.323Z,13.1
2022-11-13T00:18:18.473Z,13.1
2022-11-13T00:23:18.595Z,13.1
2022-11-13T00:28:18.768Z,13.0
2022-11-13T00:33:45.488Z,12.9
2022-11-13T00:38:19.132Z,12.8
2022-11-13T00:43:19.403Z,12.8
2022-11-13T00:48:19.457Z,12.8
2022-11-13T00:53:21.384Z,12.9
2022-11-13T00:58:19.564Z,12.9
2022-11-13T01:03:19.547Z,13.1
2022-11-13T01:08:19.651Z,13.2
2022-11-13T01:13:19.973Z,13.3
2022-11-13T01:18:19.875Z,13.4
2022-11-13T01:23:19.943Z,13.5
2022-11-13T01:28:20.141Z,13.6
2022-11-13T01:33:20.252Z,13.7
2022-11-13T01:38:20.456Z,13.8
2022-11-13T01:43:20.486Z,13.8
2022-11-13T01:48:20.627Z,13.9
2022-11-13T01:53:20.779Z,13.9
2022-11-13T01:58:20.926Z,14.0
2022-11-13T02:03:23.099Z,14.0
2022-11-13T02:08:23.213Z,14.1
2022-11-13T02:13:21.345Z,14.0
2022-11-13T02:18:21.472Z,13.9
2022-11-13T02:23:21.683Z,13.8
2022-11-13T02:28:21.766Z,13.6
2022-11-13T02:33:21.906Z,13.5
2022-11-13T02:38:22.012Z,13.3
2022-11-13T02:43:22.152Z,13.2
2022-11-13T02:48:22.300Z,13.1
2022-11-13T02:53:22.484Z,13.0
2022-11-13T02:58:22.545Z,13.0
2022-11-13T03:03:48.073Z,13.1
2022-11-13T03:08:22.761Z,13.2
2022-11-13T03:13:22.862Z,13.4
2022-11-13T03:18:22.979Z,13.4
2022-11-13T03:23:23.122Z,13.5
2022-11-13T03:28:23.262Z,13.6
2022-11-13T03:33:23.472Z,13.7
2022-11-13T03:38:23.533Z,13.6
2022-11-13T03:43:23.813Z,13.7
2022-11-13T03:48:23.891Z,13.7
2022-11-13T03:53:24.010Z,13.8
2022-11-13T03:58:24.023Z,13.8
2022-11-13T04:03:24.143Z,13.9
2022-11-13T04:08:24.547Z,13.9
2022-11-13T04:13:24.396Z,13.9
2022-11-13T04:18:24.746Z,13.9
2022-11-13T04:23:24.615Z,13.8
2022-11-13T04:28:24.908Z,13.8
2022-11-13T04:33:24.908Z,13.8
2022-11-13T04:38:25.271Z,13.8
2022-11-13T04:43:25.168Z,13.8
2022-11-13T04:48:27.610Z,13.8
2022-11-13T04:53:25.424Z,13.8
2022-11-13T04:58:25.832Z,13.8
2022-11-13T05:03:25.718Z,13.8
2022-11-13T05:08:26.313Z,13.8
2022-11-13T05:13:28.503Z,13.8
2022-11-13T05:18:26.644Z,13.8
2022-11-13T05:23:28.298Z,13.8
2022-11-13T05:28:26.895Z,13.8
2022-11-13T05:33:26.682Z,13.8
2022-11-13T05:38:26.966Z,13.7
2022-11-13T05:43:26.923Z,13.8
2022-11-13T05:48:27.382Z,13.8
2022-11-13T05:53:27.271Z,13.8
2022-11-13T05:58:27.842Z,13.8
2022-11-13T06:03:27.650Z,13.8
2022-11-13T06:08:28.054Z,13.8
2022-11-13T06:13:27.890Z,13.8
2022-11-13T06:18:28.409Z,13.8
2022-11-13T06:23:28.213Z,13.8
2022-11-13T06:28:30.664Z,13.9
2022-11-13T06:33:28.393Z,13.8
2022-11-13T06:38:28.935Z,13.9
2022-11-13T06:43:31.194Z,13.9
2022-11-13T06:48:29.200Z,13.9
2022-11-13T06:53:29.445Z,13.9
2022-11-13T06:58:29.693Z,13.9
2022-11-13T07:03:29.365Z,14.0
2022-11-13T07:08:29.978Z,14.0
2022-11-13T07:13:29.719Z,14.0
2022-11-13T07:18:32.426Z,13.9
2022-11-13T07:23:30.188Z,14.0
2022-11-13T07:28:30.572Z,14.0
2022-11-13T07:33:30.427Z,14.0
2022-11-13T07:38:30.793Z,14.0
2022-11-13T07:43:30.817Z,14.1
2022-11-13T07:48:31.268Z,14.0
2022-11-13T07:53:31.195Z,14.0
2022-11-13T07:58:31.648Z,14.1
2022-11-13T08:03:31.564Z,14.1
2022-11-13T08:08:31.952Z,14.2
2022-11-13T08:13:31.813Z,14.2
2022-11-13T08:18:32.060Z,14.2
2022-11-13T08:23:32.126Z,14.4
2022-11-13T08:28:33.694Z,14.4
2022-11-13T08:33:33.469Z,14.5
2022-11-13T08:38:32.727Z,14.5
2022-11-13T08:43:32.840Z,14.6
2022-11-13T08:48:32.967Z,14.6
2022-11-13T08:53:35.184Z,14.6
2022-11-13T08:58:33.359Z,14.6
2022-11-13T09:03:33.509Z,14.6
2022-11-13T09:08:33.791Z,14.7
2022-11-13T09:13:34.025Z,14.6
2022-11-13T09:18:34.044Z,14.6
2022-11-13T09:23:34.205Z,14.8
2022-11-13T09:28:34.405Z,14.8
2022-11-13T09:33:34.575Z,14.8
2022-11-13T09:38:34.768Z,14.8
2022-11-13T09:43:34.893Z,14.7
2022-11-13T09:48:37.239Z,14.8
2022-11-13T09:53:35.254Z,14.8
2022-11-13T09:58:35.425Z,14.9
2022-11-13T10:03:59.860Z,14.9
2022-11-13T10:08:35.774Z,14.9
2022-11-13T10:13:35.985Z,15.0
2022-11-13T10:18:36.142Z,15.1
2022-11-13T10:23:38.405Z,15.1
2022-11-13T10:28:50.514Z,15.3
2022-11-13T10:33:36.688Z,15.3
2022-11-13T10:38:36.911Z,15.6
2022-11-13T10:43:37.080Z,15.6
2022-11-13T10:48:37.749Z,15.8
2022-11-13T10:53:37.431Z,16.0
2022-11-13T10:58:37.670Z,16.1
2022-11-13T11:03:37.876Z,15.9
2022-11-13T11:08:38.100Z,16.1
2022-11-13T11:13:38.348Z,15.9
2022-11-13T11:18:38.544Z,15.9
2022-11-13T11:23:38.809Z,15.9
2022-11-13T11:28:39.018Z,15.8
2022-11-13T11:33:39.237Z,15.8
2022-11-13T11:38:39.446Z,15.9
2022-11-13T11:43:39.629Z,15.6
2022-11-13T11:48:39.884Z,15.4
2022-11-13T11:53:40.103Z,15.4
2022-11-13T11:58:40.305Z,15.4
2022-11-13T12:03:40.531Z,15.2
2022-11-13T12:08:40.690Z,15.1
2022-11-13T12:13:40.887Z,15.4
2022-11-13T12:18:41.079Z,15.7
2022-11-13T12:23:43.286Z,16.0
2022-11-13T12:28:41.467Z,16.2
2022-11-13T12:33:41.805Z,16.4
2022-11-13T12:38:41.941Z,16.4
2022-11-13T12:43:43.395Z,16.4
2022-11-13T12:48:42.411Z,16.1
2022-11-13T12:53:42.718Z,16.1
2022-11-13T12:58:42.907Z,16.2
2022-11-13T13:03:47.771Z,16.1
2022-11-13T13:08:43.385Z,16.1
2022-11-13T13:13:43.596Z,15.8
2022-11-13T13:18:43.811Z,15.7
2022-11-13T13:23:44.017Z,15.8
2022-11-13T13:28:44.168Z,15.9
2022-11-13T13:38:49.321Z,15.9
2022-11-13T13:43:44.896Z,15.7
2022-11-13T13:48:45.169Z,15.8
2022-11-13T13:58:45.582Z,15.8
2022-11-13T14:03:45.771Z,15.8
2022-11-13T14:08:46.029Z,15.8
2022-11-13T14:10:38.855Z,15.8
2022-11-13T14:13:46.292Z,15.9
2022-11-13T14:18:46.433Z,15.9
2022-11-13T14:23:46.670Z,15.8
2022-11-13T14:28:49.800Z,15.8
2022-11-13T14:33:47.062Z,15.8
2022-11-13T14:38:51.798Z,15.6
2022-11-13T14:43:47.536Z,15.6
2022-11-13T14:48:47.758Z,15.6
2022-11-13T14:53:48.010Z,15.5
2022-11-13T14:58:48.187Z,15.5
2022-11-13T15:03:48.447Z,15.4
2022-11-13T15:08:51.319Z,15.4
2022-11-13T15:13:50.071Z,15.3
2022-11-13T15:18:49.042Z,15.3
2022-11-13T15:23:49.242Z,15.2
2022-11-13T15:28:49.366Z,15.2
2022-11-13T15:33:49.561Z,15.2
2022-11-13T15:38:51.154Z,15.1
2022-11-13T15:43:49.935Z,14.9
2022-11-13T15:48:52.739Z,14.8
2022-11-13T15:53:50.328Z,14.7
2022-11-13T15:58:50.561Z,14.6
2022-11-13T16:03:50.754Z,14.5
2022-11-13T16:08:50.952Z,14.4
2022-11-13T16:13:51.152Z,14.3
2022-11-13T16:18:55.821Z,14.2
2022-11-13T16:23:51.505Z,14.2
2022-11-13T16:29:12.614Z,14.1
2022-11-13T16:33:51.894Z,14.0
2022-11-13T16:38:52.011Z,13.9
2022-11-13T16:48:52.383Z,13.8
2022-11-13T16:53:52.581Z,13.8
2022-11-13T16:58:52.723Z,13.8
2022-11-13T17:03:52.811Z,13.9
2022-11-13T17:08:52.896Z,13.9
2022-11-13T17:13:53.566Z,14.0
2022-11-13T17:18:53.167Z,14.0
2022-11-13T17:23:53.289Z,14.1
2022-11-13T17:28:53.400Z,14.1
2022-11-13T17:33:54.113Z,14.1
2022-11-13T17:38:55.695Z,14.2
2022-11-13T17:43:56.886Z,14.2
2022-11-13T17:48:53.964Z,14.3
2022-11-13T17:53:54.084Z,14.3
2022-11-13T17:58:54.203Z,14.4
2022-11-13T18:03:54.745Z,14.4
2022-11-13T18:08:54.435Z,14.4
2022-11-13T18:13:54.636Z,14.4
2022-11-13T18:18:54.820Z,14.4
2022-11-13T18:23:54.983Z,14.4
2022-11-13T18:28:55.098Z,14.4
2022-11-13T18:33:55.257Z,14.4
2022-11-13T18:38:55.441Z,14.4
2022-11-13T18:43:55.584Z,14.4
2022-11-13T18:48:55.749Z,14.4
2022-11-13T18:53:55.938Z,14.5
2022-11-13T18:58:56.132Z,14.5
2022-11-13T19:04:21.580Z,14.6
2022-11-13T19:08:56.509Z,14.5
2022-11-13T19:13:56.784Z,14.5
2022-11-13T19:18:56.882Z,14.5
2022-11-13T19:28:57.303Z,14.5
2022-11-13T19:33:57.448Z,14.4
2022-11-13T19:38:57.595Z,14.4
2022-11-13T19:43:57.737Z,14.4
2022-11-13T19:48:57.946Z,14.4
2022-11-13T19:58:58.200Z,14.4
2022-11-13T20:04:00.390Z,14.4
2022-11-13T20:08:58.785Z,14.4
2022-11-13T20:14:00.748Z,14.5
2022-11-13T20:23:59.053Z,14.4
2022-11-13T20:28:59.196Z,14.5
2022-11-13T20:33:59.349Z,14.4
2022-11-13T20:38:59.467Z,14.5
2022-11-13T20:43:59.656Z,14.5
2022-11-13T20:48:59.797Z,14.5
2022-11-13T20:53:59.959Z,14.5
2022-11-13T20:59:00.152Z,14.5
2022-11-13T21:04:00.507Z,14.4
2022-11-13T21:09:00.422Z,14.5
2022-11-13T21:14:00.624Z,14.6
2022-11-13T21:19:00.763Z,14.5
2022-11-13T21:24:00.983Z,14.6
2022-11-13T21:29:01.101Z,14.6
2022-11-13T21:34:01.228Z,14.5
2022-11-13T21:39:01.482Z,14.5
2022-11-13T21:44:01.510Z,14.5
2022-11-13T21:49:03.685Z,14.4
2022-11-13T21:54:01.870Z,14.4
2022-11-13T21:59:01.990Z,14.5
2022-11-13T22:04:02.152Z,14.5
2022-11-13T22:09:02.315Z,14.5
2022-11-13T22:14:02.460Z,14.5
2022-11-13T22:19:02.602Z,14.5
2022-11-13T22:24:02.703Z,14.5
2022-11-13T22:29:05.095Z,14.5
2022-11-13T22:34:03.147Z,14.5
2022-11-13T22:39:03.285Z,14.5
2022-11-13T22:44:03.354Z,14.5
2022-11-13T22:49:03.512Z,14.4
2022-11-13T22:54:03.639Z,14.5
2022-11-13T22:59:03.777Z,14.4
2022-11-13T23:04:04.013Z,14.4
2022-11-13T23:09:03.953Z,14.4
2022-11-13T23:14:04.235Z,14.2
2022-11-13T23:19:04.236Z,14.2
2022-11-13T23:29:04.561Z,14.1
2022-11-13T23:34:04.943Z,14.2
2022-11-13T23:39:04.955Z,14.2
2022-11-13T23:44:09.093Z,14.1
2022-11-13T23:49:05.256Z,14.1
2022-11-13T23:54:05.597Z,14.1
2022-11-13T23:59:05.584Z,14.1
